sensor_id;sensor_type;location;lat;lon;timestamp;temperature;humidity
25914;DHT22;13718;50.922;5.346;2023-11-22T00:02:24;6.00;99.90
25914;DHT22;13718;50.922;5.346;2023-11-22T00:04:54;6.00;99.90
25914;DHT22;13718;50.922;5.346;2023-11-22T00:07:19;6.00;99.90
25914;DHT22;13718;50.922;5.346;2023-11-22T00:09:45;6.00;99.90
25914;DHT22;13718;50.922;5.346;2023-11-22T00:12:12;6.00;99.90
25914;DHT22;13718;50.922;5.346;2023-11-22T00:14:38;6.00;99.90
25914;DHT22;13718;50.922;5.346;2023-11-22T00:17:04;6.00;99.90
25914;DHT22;13718;50.922;5.346;2023-11-22T00:19:30;6.00;99.90
25914;DHT22;13718;50.922;5.346;2023-11-22T00:21:55;6.00;99.90
25914;DHT22;13718;50.922;5.346;2023-11-22T00:24:21;6.00;99.90
25914;DHT22;13718;50.922;5.346;2023-11-22T00:26:46;6.00;99.90
25914;DHT22;13718;50.922;5.346;2023-11-22T00:29:12;5.80;99.90
25914;DHT22;13718;50.922;5.346;2023-11-22T00:31:37;5.70;99.90
25914;DHT22;13718;50.922;5.346;2023-11-22T00:34:03;5.70;99.90
25914;DHT22;13718;50.922;5.346;2023-11-22T00:36:28;5.70;99.90
25914;DHT22;13718;50.922;5.346;2023-11-22T00:38:54;5.70;99.90
25914;DHT22;13718;50.922;5.346;2023-11-22T00:41:19;5.70;99.90
25914;DHT22;13718;50.922;5.346;2023-11-22T00:43:45;5.80;99.90
25914;DHT22;13718;50.922;5.346;2023-11-22T00:46:11;5.70;99.90
25914;DHT22;13718;50.922;5.346;2023-11-22T00:48:36;5.60;99.90
25914;DHT22;13718;50.922;5.346;2023-11-22T00:51:03;5.60;99.90
25914;DHT22;13718;50.922;5.346;2023-11-22T00:53:34;5.50;99.90
25914;DHT22;13718;50.922;5.346;2023-11-22T00:55:59;5.50;99.90
25914;DHT22;13718;50.922;5.346;2023-11-22T00:58:25;5.40;99.90
25914;DHT22;13718;50.922;5.346;2023-11-22T01:00:50;5.40;99.90
25914;DHT22;13718;50.922;5.346;2023-11-22T01:03:16;5.40;99.90
25914;DHT22;13718;50.922;5.346;2023-11-22T01:05:41;5.40;99.90
25914;DHT22;13718;50.922;5.346;2023-11-22T01:08:07;5.30;99.90
25914;DHT22;13718;50.922;5.346;2023-11-22T01:10:33;5.30;99.90
25914;DHT22;13718;50.922;5.346;2023-11-22T01:12:58;5.30;99.90
25914;DHT22;13718;50.922;5.346;2023-11-22T01:15:24;5.30;99.90
25914;DHT22;13718;50.922;5.346;2023-11-22T01:17:50;5.30;99.90
25914;DHT22;13718;50.922;5.346;2023-11-22T01:20:15;5.30;99.90
25914;DHT22;13718;50.922;5.346;2023-11-22T01:22:43;5.30;99.90
25914;DHT22;13718;50.922;5.346;2023-11-22T01:25:09;5.20;99.90
25914;DHT22;13718;50.922;5.346;2023-11-22T01:27:34;5.30;99.90
25914;DHT22;13718;50.922;5.346;2023-11-22T01:30:01;5.30;99.90
25914;DHT22;13718;50.922;5.346;2023-11-22T01:32:29;5.40;99.90
25914;DHT22;13718;50.922;5.346;2023-11-22T01:34:54;5.50;99.90
25914;DHT22;13718;50.922;5.346;2023-11-22T01:37:23;5.60;99.90
25914;DHT22;13718;50.922;5.346;2023-11-22T01:39:49;5.70;99.90
25914;DHT22;13718;50.922;5.346;2023-11-22T01:42:14;5.70;99.90
25914;DHT22;13718;50.922;5.346;2023-11-22T01:44:40;5.70;99.90
25914;DHT22;13718;50.922;5.346;2023-11-22T01:47:07;5.70;99.90
25914;DHT22;13718;50.922;5.346;2023-11-22T01:49:33;5.70;99.90
25914;DHT22;13718;50.922;5.346;2023-11-22T01:52:01;5.70;99.90
25914;DHT22;13718;50.922;5.346;2023-11-22T01:54:26;5.80;99.90
25914;DHT22;13718;50.922;5.346;2023-11-22T01:56:53;5.70;99.90
25914;DHT22;13718;50.922;5.346;2023-11-22T01:59:18;5.60;99.90
25914;DHT22;13718;50.922;5.346;2023-11-22T02:01:44;5.70;99.90
25914;DHT22;13718;50.922;5.346;2023-11-22T02:04:11;5.80;99.90
25914;DHT22;13718;50.922;5.346;2023-11-22T02:06:37;5.90;99.90
25914;DHT22;13718;50.922;5.346;2023-11-22T02:09:02;5.90;99.90
25914;DHT22;13718;50.922;5.346;2023-11-22T02:11:28;5.90;99.90
25914;DHT22;13718;50.922;5.346;2023-11-22T02:13:53;5.90;99.90
25914;DHT22;13718;50.922;5.346;2023-11-22T02:16:19;5.90;99.90
25914;DHT22;13718;50.922;5.346;2023-11-22T02:18:45;5.80;99.90
25914;DHT22;13718;50.922;5.346;2023-11-22T02:21:11;5.90;99.90
25914;DHT22;13718;50.922;5.346;2023-11-22T02:23:36;5.90;99.90
25914;DHT22;13718;50.922;5.346;2023-11-22T02:26:02;5.90;99.90
25914;DHT22;13718;50.922;5.346;2023-11-22T02:28:27;5.90;99.90
25914;DHT22;13718;50.922;5.346;2023-11-22T02:30:53;5.90;99.90
25914;DHT22;13718;50.922;5.346;2023-11-22T02:33:19;5.90;99.90
25914;DHT22;13718;50.922;5.346;2023-11-22T02:35:45;5.90;99.90
25914;DHT22;13718;50.922;5.346;2023-11-22T02:38:11;5.90;99.90
25914;DHT22;13718;50.922;5.346;2023-11-22T02:40:36;6.00;99.90
25914;DHT22;13718;50.922;5.346;2023-11-22T02:43:02;5.90;99.90
25914;DHT22;13718;50.922;5.346;2023-11-22T02:45:32;6.00;99.90
25914;DHT22;13718;50.922;5.346;2023-11-22T02:47:58;6.00;99.90
25914;DHT22;13718;50.922;5.346;2023-11-22T02:50:24;5.90;99.90
25914;DHT22;13718;50.922;5.346;2023-11-22T02:52:50;5.90;99.90
25914;DHT22;13718;50.922;5.346;2023-11-22T02:55:16;6.00;99.90
25914;DHT22;13718;50.922;5.346;2023-11-22T02:57:41;5.90;99.90
25914;DHT22;13718;50.922;5.346;2023-11-22T03:00:07;5.90;99.90
25914;DHT22;13718;50.922;5.346;2023-11-22T03:02:33;5.80;99.90
25914;DHT22;13718;50.922;5.346;2023-11-22T03:04:59;5.80;99.90
25914;DHT22;13718;50.922;5.346;2023-11-22T03:07:25;5.80;99.90
25914;DHT22;13718;50.922;5.346;2023-11-22T03:09:51;5.80;99.90
25914;DHT22;13718;50.922;5.346;2023-11-22T03:12:18;5.80;99.90
25914;DHT22;13718;50.922;5.346;2023-11-22T03:14:44;5.80;99.90
25914;DHT22;13718;50.922;5.346;2023-11-22T03:17:10;5.90;99.90
25914;DHT22;13718;50.922;5.346;2023-11-22T03:19:35;5.90;99.90
25914;DHT22;13718;50.922;5.346;2023-11-22T03:22:01;6.00;99.90
25914;DHT22;13718;50.922;5.346;2023-11-22T03:24:28;6.00;99.90
25914;DHT22;13718;50.922;5.346;2023-11-22T03:26:54;6.00;99.90
25914;DHT22;13718;50.922;5.346;2023-11-22T03:29:21;6.00;99.90
25914;DHT22;13718;50.922;5.346;2023-11-22T03:31:46;6.00;99.90
25914;DHT22;13718;50.922;5.346;2023-11-22T03:34:13;6.10;99.90
25914;DHT22;13718;50.922;5.346;2023-11-22T03:36:40;6.20;99.90
25914;DHT22;13718;50.922;5.346;2023-11-22T03:39:05;6.20;99.90
25914;DHT22;13718;50.922;5.346;2023-11-22T03:41:31;6.30;99.90
25914;DHT22;13718;50.922;5.346;2023-11-22T03:43:56;6.20;99.90
25914;DHT22;13718;50.922;5.346;2023-11-22T03:46:21;6.20;99.90
25914;DHT22;13718;50.922;5.346;2023-11-22T03:48:47;6.20;99.90
25914;DHT22;13718;50.922;5.346;2023-11-22T03:51:12;6.20;99.90
25914;DHT22;13718;50.922;5.346;2023-11-22T03:53:38;6.10;99.90
25914;DHT22;13718;50.922;5.346;2023-11-22T03:56:04;6.10;99.90
25914;DHT22;13718;50.922;5.346;2023-11-22T03:58:30;6.10;99.90
25914;DHT22;13718;50.922;5.346;2023-11-22T04:00:56;6.20;99.90
25914;DHT22;13718;50.922;5.346;2023-11-22T04:03:22;6.00;99.90
25914;DHT22;13718;50.922;5.346;2023-11-22T04:05:48;6.20;99.90
25914;DHT22;13718;50.922;5.346;2023-11-22T04:08:13;6.40;99.90
25914;DHT22;13718;50.922;5.346;2023-11-22T04:10:39;6.30;99.90
25914;DHT22;13718;50.922;5.346;2023-11-22T04:13:04;6.10;99.90
25914;DHT22;13718;50.922;5.346;2023-11-22T04:15:29;6.20;99.90
25914;DHT22;13718;50.922;5.346;2023-11-22T04:17:55;6.40;99.90
25914;DHT22;13718;50.922;5.346;2023-11-22T04:20:20;6.30;99.90
25914;DHT22;13718;50.922;5.346;2023-11-22T04:22:46;6.20;99.90
25914;DHT22;13718;50.922;5.346;2023-11-22T04:25:11;6.20;99.90
25914;DHT22;13718;50.922;5.346;2023-11-22T04:27:40;6.10;99.90
25914;DHT22;13718;50.922;5.346;2023-11-22T04:30:07;6.20;99.90
25914;DHT22;13718;50.922;5.346;2023-11-22T04:32:34;6.30;99.90
25914;DHT22;13718;50.922;5.346;2023-11-22T04:35:01;6.60;99.90
25914;DHT22;13718;50.922;5.346;2023-11-22T04:37:27;6.50;99.90
25914;DHT22;13718;50.922;5.346;2023-11-22T04:39:58;6.30;99.90
25914;DHT22;13718;50.922;5.346;2023-11-22T04:42:23;6.10;99.90
25914;DHT22;13718;50.922;5.346;2023-11-22T04:44:48;6.00;99.90
25914;DHT22;13718;50.922;5.346;2023-11-22T04:47:14;6.00;99.90
25914;DHT22;13718;50.922;5.346;2023-11-22T04:49:39;6.00;99.90
25914;DHT22;13718;50.922;5.346;2023-11-22T04:52:05;5.90;99.90
25914;DHT22;13718;50.922;5.346;2023-11-22T04:54:31;5.90;99.90
25914;DHT22;13718;50.922;5.346;2023-11-22T04:56:57;5.90;99.90
25914;DHT22;13718;50.922;5.346;2023-11-22T04:59:22;5.90;99.90
25914;DHT22;13718;50.922;5.346;2023-11-22T05:01:48;5.90;99.90
25914;DHT22;13718;50.922;5.346;2023-11-22T05:04:14;6.00;99.90
25914;DHT22;13718;50.922;5.346;2023-11-22T05:06:39;6.00;99.90
25914;DHT22;13718;50.922;5.346;2023-11-22T05:09:05;6.00;99.90
25914;DHT22;13718;50.922;5.346;2023-11-22T05:11:31;6.10;99.90
25914;DHT22;13718;50.922;5.346;2023-11-22T05:13:57;6.10;99.90
25914;DHT22;13718;50.922;5.346;2023-11-22T05:16:22;6.10;99.90
25914;DHT22;13718;50.922;5.346;2023-11-22T05:18:49;6.10;99.90
25914;DHT22;13718;50.922;5.346;2023-11-22T05:21:15;6.00;99.90
25914;DHT22;13718;50.922;5.346;2023-11-22T05:23:40;6.00;99.90
25914;DHT22;13718;50.922;5.346;2023-11-22T05:26:06;6.10;99.90
25914;DHT22;13718;50.922;5.346;2023-11-22T05:28:31;6.00;99.90
25914;DHT22;13718;50.922;5.346;2023-11-22T05:30:57;6.00;99.90
25914;DHT22;13718;50.922;5.346;2023-11-22T05:33:22;6.00;99.90
25914;DHT22;13718;50.922;5.346;2023-11-22T05:35:49;6.00;99.90
25914;DHT22;13718;50.922;5.346;2023-11-22T05:40:45;5.90;99.90
25914;DHT22;13718;50.922;5.346;2023-11-22T05:43:10;5.90;99.90
25914;DHT22;13718;50.922;5.346;2023-11-22T05:45:36;5.80;99.90
25914;DHT22;13718;50.922;5.346;2023-11-22T05:48:01;5.80;99.90
25914;DHT22;13718;50.922;5.346;2023-11-22T05:50:27;6.00;99.90
25914;DHT22;13718;50.922;5.346;2023-11-22T05:52:52;6.40;99.90
25914;DHT22;13718;50.922;5.346;2023-11-22T05:55:18;6.40;99.90
25914;DHT22;13718;50.922;5.346;2023-11-22T05:57:44;6.90;99.90
25914;DHT22;13718;50.922;5.346;2023-11-22T06:00:09;6.80;99.90
25914;DHT22;13718;50.922;5.346;2023-11-22T06:02:35;6.90;99.90
25914;DHT22;13718;50.922;5.346;2023-11-22T06:05:02;6.90;99.90
25914;DHT22;13718;50.922;5.346;2023-11-22T06:07:28;6.50;99.90
25914;DHT22;13718;50.922;5.346;2023-11-22T06:09:53;6.20;99.90
25914;DHT22;13718;50.922;5.346;2023-11-22T06:12:19;5.90;99.90
25914;DHT22;13718;50.922;5.346;2023-11-22T06:14:46;5.90;99.90
25914;DHT22;13718;50.922;5.346;2023-11-22T06:17:12;5.90;99.90
25914;DHT22;13718;50.922;5.346;2023-11-22T06:19:37;5.90;99.90
25914;DHT22;13718;50.922;5.346;2023-11-22T06:22:03;5.90;99.90
25914;DHT22;13718;50.922;5.346;2023-11-22T06:24:28;6.10;99.90
25914;DHT22;13718;50.922;5.346;2023-11-22T06:26:54;6.20;99.90
25914;DHT22;13718;50.922;5.346;2023-11-22T06:29:19;6.10;99.90
25914;DHT22;13718;50.922;5.346;2023-11-22T06:31:45;6.10;99.90
25914;DHT22;13718;50.922;5.346;2023-11-22T06:34:11;6.10;99.90
25914;DHT22;13718;50.922;5.346;2023-11-22T06:36:37;6.00;99.90
25914;DHT22;13718;50.922;5.346;2023-11-22T06:39:03;6.10;99.90
25914;DHT22;13718;50.922;5.346;2023-11-22T06:41:30;6.30;99.90
25914;DHT22;13718;50.922;5.346;2023-11-22T06:43:55;6.30;99.90
25914;DHT22;13718;50.922;5.346;2023-11-22T06:46:21;6.40;99.90
25914;DHT22;13718;50.922;5.346;2023-11-22T06:48:48;6.60;99.90
25914;DHT22;13718;50.922;5.346;2023-11-22T06:51:14;6.80;99.90
25914;DHT22;13718;50.922;5.346;2023-11-22T06:53:40;6.70;99.90
25914;DHT22;13718;50.922;5.346;2023-11-22T06:56:06;6.50;99.90
25914;DHT22;13718;50.922;5.346;2023-11-22T06:58:31;6.40;99.90
25914;DHT22;13718;50.922;5.346;2023-11-22T07:00:57;6.40;99.90
25914;DHT22;13718;50.922;5.346;2023-11-22T07:03:22;6.40;99.90
25914;DHT22;13718;50.922;5.346;2023-11-22T07:05:48;6.40;99.90
25914;DHT22;13718;50.922;5.346;2023-11-22T07:08:13;6.20;99.90
25914;DHT22;13718;50.922;5.346;2023-11-22T07:10:41;6.20;99.90
25914;DHT22;13718;50.922;5.346;2023-11-22T07:13:07;6.20;99.90
25914;DHT22;13718;50.922;5.346;2023-11-22T07:15:32;6.40;99.90
25914;DHT22;13718;50.922;5.346;2023-11-22T07:17:58;6.50;99.90
25914;DHT22;13718;50.922;5.346;2023-11-22T07:20:24;6.50;99.90
25914;DHT22;13718;50.922;5.346;2023-11-22T07:22:49;6.60;99.90
25914;DHT22;13718;50.922;5.346;2023-11-22T07:25:20;6.70;99.90
25914;DHT22;13718;50.922;5.346;2023-11-22T07:27:50;6.70;99.90
25914;DHT22;13718;50.922;5.346;2023-11-22T07:30:16;6.80;99.90
25914;DHT22;13718;50.922;5.346;2023-11-22T07:32:44;6.70;99.90
25914;DHT22;13718;50.922;5.346;2023-11-22T07:35:10;6.60;99.90
25914;DHT22;13718;50.922;5.346;2023-11-22T07:37:35;6.80;99.90
25914;DHT22;13718;50.922;5.346;2023-11-22T07:40:01;7.10;99.90
25914;DHT22;13718;50.922;5.346;2023-11-22T07:42:29;7.10;99.90
25914;DHT22;13718;50.922;5.346;2023-11-22T07:44:54;6.90;99.90
25914;DHT22;13718;50.922;5.346;2023-11-22T07:47:22;6.80;99.90
25914;DHT22;13718;50.922;5.346;2023-11-22T07:49:50;6.80;99.90
25914;DHT22;13718;50.922;5.346;2023-11-22T07:52:15;6.90;99.90
25914;DHT22;13718;50.922;5.346;2023-11-22T07:54:41;7.00;99.90
25914;DHT22;13718;50.922;5.346;2023-11-22T07:57:06;7.00;99.90
25914;DHT22;13718;50.922;5.346;2023-11-22T07:59:32;7.10;99.90
25914;DHT22;13718;50.922;5.346;2023-11-22T08:01:58;7.10;99.90
25914;DHT22;13718;50.922;5.346;2023-11-22T08:04:26;6.90;99.90
25914;DHT22;13718;50.922;5.346;2023-11-22T08:06:52;6.90;99.90
25914;DHT22;13718;50.922;5.346;2023-11-22T08:09:22;6.90;99.90
25914;DHT22;13718;50.922;5.346;2023-11-22T08:11:48;7.00;99.90
25914;DHT22;13718;50.922;5.346;2023-11-22T08:14:14;7.10;99.90
25914;DHT22;13718;50.922;5.346;2023-11-22T08:16:40;7.20;99.90
25914;DHT22;13718;50.922;5.346;2023-11-22T08:19:08;7.20;99.90
25914;DHT22;13718;50.922;5.346;2023-11-22T08:21:34;7.20;99.90
25914;DHT22;13718;50.922;5.346;2023-11-22T08:24:00;7.30;99.90
25914;DHT22;13718;50.922;5.346;2023-11-22T08:26:25;7.30;99.90
25914;DHT22;13718;50.922;5.346;2023-11-22T08:28:51;7.20;99.90
25914;DHT22;13718;50.922;5.346;2023-11-22T08:31:16;7.20;99.90
25914;DHT22;13718;50.922;5.346;2023-11-22T08:33:42;7.20;99.90
25914;DHT22;13718;50.922;5.346;2023-11-22T08:36:08;7.20;99.90
25914;DHT22;13718;50.922;5.346;2023-11-22T08:38:34;7.30;99.90
25914;DHT22;13718;50.922;5.346;2023-11-22T08:41:01;7.40;99.90
25914;DHT22;13718;50.922;5.346;2023-11-22T08:43:27;7.40;99.90
25914;DHT22;13718;50.922;5.346;2023-11-22T08:45:52;7.80;99.90
25914;DHT22;13718;50.922;5.346;2023-11-22T08:48:17;7.80;99.90
25914;DHT22;13718;50.922;5.346;2023-11-22T08:50:43;7.60;99.90
25914;DHT22;13718;50.922;5.346;2023-11-22T08:53:10;7.50;99.90
25914;DHT22;13718;50.922;5.346;2023-11-22T08:55:35;7.40;99.90
25914;DHT22;13718;50.922;5.346;2023-11-22T08:58:01;7.40;99.90
25914;DHT22;13718;50.922;5.346;2023-11-22T09:00:26;7.50;99.90
25914;DHT22;13718;50.922;5.346;2023-11-22T09:02:54;7.60;99.90
25914;DHT22;13718;50.922;5.346;2023-11-22T09:05:22;8.00;99.90
25914;DHT22;13718;50.922;5.346;2023-11-22T09:07:47;7.90;99.90
25914;DHT22;13718;50.922;5.346;2023-11-22T09:10:13;7.90;99.90
25914;DHT22;13718;50.922;5.346;2023-11-22T09:12:40;7.90;99.90
25914;DHT22;13718;50.922;5.346;2023-11-22T09:15:06;8.00;99.90
25914;DHT22;13718;50.922;5.346;2023-11-22T09:17:35;8.20;99.90
25914;DHT22;13718;50.922;5.346;2023-11-22T09:20:01;8.50;99.90
25914;DHT22;13718;50.922;5.346;2023-11-22T09:22:27;8.20;99.90
25914;DHT22;13718;50.922;5.346;2023-11-22T09:24:53;8.00;99.90
25914;DHT22;13718;50.922;5.346;2023-11-22T09:27:18;8.20;99.90
25914;DHT22;13718;50.922;5.346;2023-11-22T09:29:45;8.40;99.90
25914;DHT22;13718;50.922;5.346;2023-11-22T09:32:11;8.40;99.90
25914;DHT22;13718;50.922;5.346;2023-11-22T09:34:38;8.60;99.90
25914;DHT22;13718;50.922;5.346;2023-11-22T09:37:03;8.50;99.90
25914;DHT22;13718;50.922;5.346;2023-11-22T09:39:29;8.40;99.90
25914;DHT22;13718;50.922;5.346;2023-11-22T09:41:55;8.30;99.90
25914;DHT22;13718;50.922;5.346;2023-11-22T09:44:20;8.30;99.90
25914;DHT22;13718;50.922;5.346;2023-11-22T09:46:48;8.40;99.90
25914;DHT22;13718;50.922;5.346;2023-11-22T09:49:15;8.20;99.90
25914;DHT22;13718;50.922;5.346;2023-11-22T09:51:44;8.10;99.90
25914;DHT22;13718;50.922;5.346;2023-11-22T09:54:11;8.10;99.90
25914;DHT22;13718;50.922;5.346;2023-11-22T09:56:39;8.10;99.90
25914;DHT22;13718;50.922;5.346;2023-11-22T09:59:06;8.20;99.90
25914;DHT22;13718;50.922;5.346;2023-11-22T10:01:32;8.20;99.90
25914;DHT22;13718;50.922;5.346;2023-11-22T10:04:02;8.40;99.90
25914;DHT22;13718;50.922;5.346;2023-11-22T10:06:28;8.40;99.90
25914;DHT22;13718;50.922;5.346;2023-11-22T10:08:58;8.60;99.90
25914;DHT22;13718;50.922;5.346;2023-11-22T10:11:24;8.60;99.90
25914;DHT22;13718;50.922;5.346;2023-11-22T10:13:50;8.70;99.90
25914;DHT22;13718;50.922;5.346;2023-11-22T10:16:16;8.70;99.90
25914;DHT22;13718;50.922;5.346;2023-11-22T10:18:42;8.60;99.90
25914;DHT22;13718;50.922;5.346;2023-11-22T10:21:21;8.50;99.90
25914;DHT22;13718;50.922;5.346;2023-11-22T10:23:47;8.60;99.90
25914;DHT22;13718;50.922;5.346;2023-11-22T10:26:13;8.70;99.90
25914;DHT22;13718;50.922;5.346;2023-11-22T10:28:41;8.80;99.90
25914;DHT22;13718;50.922;5.346;2023-11-22T10:31:07;8.80;99.90
25914;DHT22;13718;50.922;5.346;2023-11-22T10:33:33;8.80;99.90
25914;DHT22;13718;50.922;5.346;2023-11-22T10:35:58;8.90;99.90
25914;DHT22;13718;50.922;5.346;2023-11-22T10:38:24;8.90;99.90
25914;DHT22;13718;50.922;5.346;2023-11-22T10:40:51;9.00;99.90
25914;DHT22;13718;50.922;5.346;2023-11-22T10:43:19;9.00;99.90
25914;DHT22;13718;50.922;5.346;2023-11-22T10:45:47;9.10;99.90
25914;DHT22;13718;50.922;5.346;2023-11-22T10:48:16;9.10;99.90
25914;DHT22;13718;50.922;5.346;2023-11-22T10:50:42;9.10;99.90
25914;DHT22;13718;50.922;5.346;2023-11-22T10:53:11;9.10;99.90
25914;DHT22;13718;50.922;5.346;2023-11-22T10:55:38;9.20;99.90
25914;DHT22;13718;50.922;5.346;2023-11-22T10:58:05;9.30;99.90
25914;DHT22;13718;50.922;5.346;2023-11-22T11:00:32;9.40;99.90
25914;DHT22;13718;50.922;5.346;2023-11-22T11:03:19;9.40;99.90
25914;DHT22;13718;50.922;5.346;2023-11-22T11:05:47;9.50;99.90
25914;DHT22;13718;50.922;5.346;2023-11-22T11:08:14;9.40;99.90
25914;DHT22;13718;50.922;5.346;2023-11-22T11:10:44;9.30;99.90
25914;DHT22;13718;50.922;5.346;2023-11-22T11:13:10;9.30;99.90
25914;DHT22;13718;50.922;5.346;2023-11-22T11:15:39;9.50;99.90
25914;DHT22;13718;50.922;5.346;2023-11-22T11:18:08;9.60;99.90
25914;DHT22;13718;50.922;5.346;2023-11-22T11:20:51;10.00;99.90
25914;DHT22;13718;50.922;5.346;2023-11-22T11:23:17;9.90;99.90
25914;DHT22;13718;50.922;5.346;2023-11-22T11:25:47;9.90;99.90
25914;DHT22;13718;50.922;5.346;2023-11-22T11:28:13;9.60;99.90
25914;DHT22;13718;50.922;5.346;2023-11-22T11:30:48;9.50;99.90
25914;DHT22;13718;50.922;5.346;2023-11-22T11:33:18;9.30;99.90
25914;DHT22;13718;50.922;5.346;2023-11-22T11:35:48;9.30;99.90
25914;DHT22;13718;50.922;5.346;2023-11-22T11:38:14;9.40;99.90
25914;DHT22;13718;50.922;5.346;2023-11-22T11:40:43;9.70;99.90
25914;DHT22;13718;50.922;5.346;2023-11-22T11:43:10;9.50;99.90
25914;DHT22;13718;50.922;5.346;2023-11-22T11:45:37;9.30;99.90
25914;DHT22;13718;50.922;5.346;2023-11-22T11:48:05;9.40;99.90
25914;DHT22;13718;50.922;5.346;2023-11-22T11:50:30;9.50;99.90
25914;DHT22;13718;50.922;5.346;2023-11-22T11:52:56;9.60;99.90
25914;DHT22;13718;50.922;5.346;2023-11-22T11:55:22;9.90;99.90
25914;DHT22;13718;50.922;5.346;2023-11-22T11:57:47;9.90;99.90
25914;DHT22;13718;50.922;5.346;2023-11-22T12:00:13;9.80;99.90
25914;DHT22;13718;50.922;5.346;2023-11-22T12:02:42;9.60;99.90
25914;DHT22;13718;50.922;5.346;2023-11-22T12:05:08;9.50;99.90
25914;DHT22;13718;50.922;5.346;2023-11-22T12:07:34;9.40;99.90
25914;DHT22;13718;50.922;5.346;2023-11-22T12:10:00;9.50;99.90
25914;DHT22;13718;50.922;5.346;2023-11-22T12:12:26;9.60;99.90
25914;DHT22;13718;50.922;5.346;2023-11-22T12:14:51;9.70;99.90
25914;DHT22;13718;50.922;5.346;2023-11-22T12:17:17;9.60;99.90
25914;DHT22;13718;50.922;5.346;2023-11-22T12:19:43;9.60;99.90
25914;DHT22;13718;50.922;5.346;2023-11-22T12:22:08;9.60;99.90
25914;DHT22;13718;50.922;5.346;2023-11-22T12:24:34;9.50;99.90
25914;DHT22;13718;50.922;5.346;2023-11-22T12:27:00;9.70;99.90
25914;DHT22;13718;50.922;5.346;2023-11-22T12:29:25;9.70;99.90
25914;DHT22;13718;50.922;5.346;2023-11-22T12:31:51;9.90;99.90
25914;DHT22;13718;50.922;5.346;2023-11-22T12:34:18;9.80;99.90
25914;DHT22;13718;50.922;5.346;2023-11-22T12:36:45;9.60;99.90
25914;DHT22;13718;50.922;5.346;2023-11-22T12:39:12;9.40;99.90
25914;DHT22;13718;50.922;5.346;2023-11-22T12:41:45;9.60;99.90
25914;DHT22;13718;50.922;5.346;2023-11-22T12:44:11;9.70;99.90
25914;DHT22;13718;50.922;5.346;2023-11-22T12:49:20;9.20;99.90
25914;DHT22;13718;50.922;5.346;2023-11-22T12:51:51;9.20;99.90
25914;DHT22;13718;50.922;5.346;2023-11-22T12:54:17;9.00;99.90
25914;DHT22;13718;50.922;5.346;2023-11-22T12:56:49;9.00;99.90
25914;DHT22;13718;50.922;5.346;2023-11-22T12:59:16;8.90;99.90
25914;DHT22;13718;50.922;5.346;2023-11-22T13:01:41;8.90;99.90
25914;DHT22;13718;50.922;5.346;2023-11-22T13:04:07;9.00;99.90
25914;DHT22;13718;50.922;5.346;2023-11-22T13:06:33;9.00;99.90
25914;DHT22;13718;50.922;5.346;2023-11-22T13:08:58;9.10;99.90
25914;DHT22;13718;50.922;5.346;2023-11-22T13:11:24;9.10;99.90
25914;DHT22;13718;50.922;5.346;2023-11-22T13:13:49;8.90;99.90
25914;DHT22;13718;50.922;5.346;2023-11-22T13:16:15;8.80;99.90
25914;DHT22;13718;50.922;5.346;2023-11-22T13:18:44;8.70;99.90
25914;DHT22;13718;50.922;5.346;2023-11-22T13:21:09;8.70;99.90
25914;DHT22;13718;50.922;5.346;2023-11-22T13:23:35;8.70;99.90
25914;DHT22;13718;50.922;5.346;2023-11-22T13:26:00;8.70;99.90
25914;DHT22;13718;50.922;5.346;2023-11-22T13:28:27;8.70;99.90
25914;DHT22;13718;50.922;5.346;2023-11-22T13:30:52;8.80;99.90
25914;DHT22;13718;50.922;5.346;2023-11-22T13:33:19;8.80;99.90
25914;DHT22;13718;50.922;5.346;2023-11-22T13:35:44;8.80;99.90
25914;DHT22;13718;50.922;5.346;2023-11-22T13:38:10;8.70;99.90
25914;DHT22;13718;50.922;5.346;2023-11-22T13:40:36;8.60;99.90
25914;DHT22;13718;50.922;5.346;2023-11-22T13:43:04;8.60;99.90
25914;DHT22;13718;50.922;5.346;2023-11-22T13:45:30;8.50;99.90
25914;DHT22;13718;50.922;5.346;2023-11-22T13:47:55;8.40;99.90
25914;DHT22;13718;50.922;5.346;2023-11-22T13:50:32;8.40;99.90
25914;DHT22;13718;50.922;5.346;2023-11-22T13:52:58;8.40;99.90
25914;DHT22;13718;50.922;5.346;2023-11-22T13:55:24;8.40;99.90
25914;DHT22;13718;50.922;5.346;2023-11-22T13:57:56;8.40;99.90
25914;DHT22;13718;50.922;5.346;2023-11-22T14:00:23;8.40;99.90
25914;DHT22;13718;50.922;5.346;2023-11-22T14:02:50;8.40;99.90
25914;DHT22;13718;50.922;5.346;2023-11-22T14:05:24;8.30;99.90
25914;DHT22;13718;50.922;5.346;2023-11-22T14:07:50;8.30;99.90
25914;DHT22;13718;50.922;5.346;2023-11-22T14:10:16;8.40;99.90
25914;DHT22;13718;50.922;5.346;2023-11-22T14:12:43;8.30;99.90
25914;DHT22;13718;50.922;5.346;2023-11-22T14:15:09;8.30;99.90
25914;DHT22;13718;50.922;5.346;2023-11-22T14:17:35;8.20;99.90
25914;DHT22;13718;50.922;5.346;2023-11-22T14:20:03;8.30;99.90
25914;DHT22;13718;50.922;5.346;2023-11-22T14:22:30;8.30;99.90
25914;DHT22;13718;50.922;5.346;2023-11-22T14:24:56;8.30;99.90
25914;DHT22;13718;50.922;5.346;2023-11-22T14:27:22;8.20;99.90
25914;DHT22;13718;50.922;5.346;2023-11-22T14:29:47;8.20;99.90
25914;DHT22;13718;50.922;5.346;2023-11-22T14:32:15;8.30;99.90
25914;DHT22;13718;50.922;5.346;2023-11-22T14:34:41;8.40;99.90
25914;DHT22;13718;50.922;5.346;2023-11-22T14:37:12;8.40;99.90
25914;DHT22;13718;50.922;5.346;2023-11-22T14:39:38;8.70;99.90
25914;DHT22;13718;50.922;5.346;2023-11-22T14:42:03;8.60;99.90
25914;DHT22;13718;50.922;5.346;2023-11-22T14:44:31;8.50;99.90
25914;DHT22;13718;50.922;5.346;2023-11-22T14:46:56;8.50;99.90
25914;DHT22;13718;50.922;5.346;2023-11-22T14:49:23;8.50;99.90
25914;DHT22;13718;50.922;5.346;2023-11-22T14:51:49;8.40;99.90
25914;DHT22;13718;50.922;5.346;2023-11-22T14:54:15;8.40;99.90
25914;DHT22;13718;50.922;5.346;2023-11-22T14:56:40;8.40;99.90
25914;DHT22;13718;50.922;5.346;2023-11-22T14:59:06;8.30;99.90
25914;DHT22;13718;50.922;5.346;2023-11-22T15:01:31;8.30;99.90
25914;DHT22;13718;50.922;5.346;2023-11-22T15:03:57;8.30;99.90
25914;DHT22;13718;50.922;5.346;2023-11-22T15:06:22;8.30;99.90
25914;DHT22;13718;50.922;5.346;2023-11-22T15:08:48;8.30;99.90
25914;DHT22;13718;50.922;5.346;2023-11-22T15:11:14;8.40;99.90
25914;DHT22;13718;50.922;5.346;2023-11-22T15:13:41;8.40;99.90
25914;DHT22;13718;50.922;5.346;2023-11-22T15:16:06;8.30;99.90
25914;DHT22;13718;50.922;5.346;2023-11-22T15:18:32;8.30;99.90
25914;DHT22;13718;50.922;5.346;2023-11-22T15:20:57;8.30;99.90
25914;DHT22;13718;50.922;5.346;2023-11-22T15:23:23;8.30;99.90
25914;DHT22;13718;50.922;5.346;2023-11-22T15:25:48;8.20;99.90
25914;DHT22;13718;50.922;5.346;2023-11-22T15:28:14;8.20;99.90
25914;DHT22;13718;50.922;5.346;2023-11-22T15:30:51;8.20;99.90
25914;DHT22;13718;50.922;5.346;2023-11-22T15:33:22;8.20;99.90
25914;DHT22;13718;50.922;5.346;2023-11-22T15:35:47;8.20;99.90
25914;DHT22;13718;50.922;5.346;2023-11-22T15:38:13;8.20;99.90
25914;DHT22;13718;50.922;5.346;2023-11-22T15:40:39;8.20;99.90
25914;DHT22;13718;50.922;5.346;2023-11-22T15:43:04;8.20;99.90
25914;DHT22;13718;50.922;5.346;2023-11-22T15:45:31;8.30;99.90